createdAt,value
2019-04-25T00:00:43.109Z,2.00
2019-04-25T00:03:36.802Z,2.30
2019-04-25T00:06:32.075Z,1.65
2019-04-25T00:09:19.724Z,2.37
2019-04-25T00:12:12.775Z,1.55
2019-04-25T00:15:05.574Z,1.40
2019-04-25T00:17:58.375Z,1.77
2019-04-25T00:20:52.279Z,2.12
2019-04-25T00:23:45.003Z,2.35
2019-04-25T00:26:44.032Z,1.70
2019-04-25T00:29:35.464Z,1.07
2019-04-25T00:32:28.262Z,0.85
2019-04-25T00:35:21.651Z,1.52
2019-04-25T00:38:10.279Z,1.07
2019-04-25T00:41:01.561Z,1.32
2019-04-25T00:43:54.350Z,0.95
2019-04-25T00:46:49.055Z,1.70
2019-04-25T00:49:40.199Z,0.90
2019-04-25T00:52:28.615Z,1.15
2019-04-25T00:55:26.906Z,1.02
2019-04-25T00:58:14.760Z,1.20
2019-04-25T01:01:17.554Z,1.37
2019-04-25T01:04:12.204Z,1.65
2019-04-25T01:07:03.657Z,1.20
2019-04-25T01:09:53.626Z,1.32
2019-04-25T01:12:46.197Z,0.93
2019-04-25T01:15:38.989Z,1.65
2019-04-25T01:18:33.591Z,1.37
2019-04-25T01:21:25.329Z,1.50
2019-04-25T01:24:18.410Z,1.47
2019-04-25T01:27:11.471Z,1.65
2019-04-25T01:30:06.106Z,1.62
2019-04-25T01:32:54.557Z,1.20
2019-04-25T01:35:55.519Z,0.95
2019-04-25T01:38:58.792Z,0.80
2019-04-25T01:41:56.117Z,0.98
2019-04-25T01:44:54.202Z,0.93
2019-04-25T01:47:45.538Z,1.37
2019-04-25T01:50:38.953Z,1.32
2019-04-25T01:53:31.754Z,1.37
2019-04-25T01:56:24.760Z,1.00
2019-04-25T01:59:17.356Z,1.00
2019-04-25T02:02:10.407Z,1.17
2019-04-25T02:05:04.978Z,1.12
2019-04-25T02:07:56.006Z,1.10
2019-04-25T02:10:48.807Z,1.30
2019-04-25T02:13:41.612Z,1.25
2019-04-25T02:16:35.425Z,1.20
2019-04-25T02:19:27.470Z,1.22
2019-04-25T02:22:24.872Z,1.27
2019-04-25T02:25:17.926Z,1.30
2019-04-25T02:28:10.728Z,1.27
2019-04-25T02:31:08.528Z,1.35
2019-04-25T02:33:53.805Z,1.32
2019-04-25T02:36:47.021Z,1.30
2019-04-25T02:39:38.861Z,0.90
2019-04-25T02:42:34.228Z,1.27
2019-04-25T02:45:35.975Z,1.22
2019-04-25T02:48:39.018Z,1.20
2019-04-25T02:51:45.066Z,1.42
2019-04-25T02:54:36.652Z,1.15
2019-04-25T02:57:29.706Z,1.10
2019-04-25T03:00:15.133Z,1.00
2019-04-25T03:03:08.611Z,1.32
2019-04-25T03:06:01.538Z,1.35
2019-04-25T03:08:54.326Z,1.20
2019-04-25T03:11:47.648Z,1.40
2019-04-25T03:14:39.593Z,0.90
2019-04-25T03:17:34.267Z,1.30
2019-04-25T03:20:47.206Z,1.15
2019-04-25T03:23:54.850Z,1.15
2019-04-25T03:26:45.607Z,1.00
2019-04-25T03:29:38.412Z,0.80
2019-04-25T03:32:31.478Z,1.00
2019-04-25T03:35:24.263Z,1.30
2019-04-25T03:38:17.064Z,1.00
2019-04-25T03:41:10.375Z,0.85
2019-04-25T03:44:05.191Z,1.07
2019-04-25T03:46:56.230Z,1.22
2019-04-25T03:49:49.544Z,1.45
2019-04-25T03:52:43.576Z,1.05
2019-04-25T03:55:35.969Z,0.98
2019-04-25T03:58:24.103Z,0.80
2019-04-25T04:01:18.184Z,1.65
2019-04-25T04:04:11.242Z,1.12
2019-04-25T04:07:07.330Z,1.40
2019-04-25T04:09:57.096Z,0.82
2019-04-25T04:12:50.919Z,1.15
2019-04-25T04:15:43.977Z,1.32
2019-04-25T04:18:54.130Z,0.80
2019-04-25T04:22:15.108Z,0.93
2019-04-25T04:25:09.600Z,1.20
2019-04-25T04:28:03.721Z,1.20
2019-04-25T04:30:55.084Z,1.00
2019-04-25T04:33:48.391Z,1.47
2019-04-25T04:36:43.662Z,1.40
2019-04-25T04:39:35.276Z,1.50
2019-04-25T04:42:28.327Z,1.05
2019-04-25T04:45:21.129Z,1.37
2019-04-25T04:48:15.505Z,1.67
2019-04-25T04:51:08.948Z,1.12
2019-04-25T04:54:00.807Z,2.42
2019-04-25T04:56:53.864Z,1.72
2019-04-25T04:59:46.918Z,1.60
2019-04-25T05:02:49.450Z,1.42
2019-04-25T05:05:51.976Z,1.67
2019-04-25T05:08:50.925Z,1.30
2019-04-25T05:11:44.214Z,1.67
2019-04-25T05:14:37.040Z,1.50
2019-04-25T05:17:30.086Z,1.20
2019-04-25T05:20:24.193Z,1.20
2019-04-25T05:23:17.071Z,1.70
2019-04-25T05:26:09.268Z,1.20
2019-04-25T05:29:03.678Z,0.90
2019-04-25T05:32:01.259Z,1.00
2019-04-25T05:34:54.310Z,1.70
2019-04-25T05:37:47.113Z,1.10
2019-04-25T05:40:39.910Z,1.00
2019-04-25T05:43:33.990Z,0.65
2019-04-25T05:46:26.797Z,1.00
2019-04-25T05:49:20.102Z,0.80
2019-04-25T05:52:13.988Z,1.05
2019-04-25T05:55:05.963Z,1.00
2019-04-25T05:57:58.764Z,1.00
2019-04-25T06:00:51.819Z,1.40
2019-04-25T06:03:44.619Z,1.00
2019-04-25T06:06:37.672Z,0.90
2019-04-25T06:09:41.991Z,0.78
2019-04-25T06:12:53.646Z,1.20
2019-04-25T06:15:46.277Z,1.50
2019-04-25T06:18:54.911Z,1.20
2019-04-25T06:21:46.473Z,1.02
2019-04-25T06:25:12.323Z,0.70
2019-04-25T06:28:00.232Z,1.05
2019-04-25T06:30:54.079Z,0.60
2019-04-25T06:33:46.395Z,0.68
2019-04-25T06:36:39.143Z,1.27
2019-04-25T06:39:33.716Z,0.75
2019-04-25T06:42:25.766Z,0.65
2019-04-25T06:45:30.157Z,0.78
2019-04-25T06:48:34.781Z,0.72
2019-04-25T06:51:27.297Z,0.55
2019-04-25T06:54:13.866Z,0.53
2019-04-25T06:57:06.665Z,0.72
2019-04-25T06:59:56.136Z,0.70
2019-04-25T07:02:49.191Z,0.80
2019-04-25T07:05:43.953Z,0.60
2019-04-25T07:08:35.450Z,0.70
2019-04-25T07:11:28.301Z,0.55
2019-04-25T07:14:20.911Z,0.60
2019-04-25T07:17:14.280Z,0.50
2019-04-25T07:20:06.760Z,0.50
2019-04-25T07:22:59.559Z,0.72
2019-04-25T07:25:53.906Z,0.60
2019-04-25T07:28:58.475Z,0.68
2019-04-25T07:32:05.967Z,0.72
2019-04-25T07:34:58.406Z,0.50
2019-04-25T07:37:51.976Z,0.65
2019-04-25T07:40:44.779Z,0.78
2019-04-25T07:43:37.584Z,0.55
2019-04-25T07:46:30.375Z,0.62
2019-04-25T07:49:23.942Z,0.68
2019-04-25T07:52:17.002Z,0.42
2019-04-25T07:55:10.059Z,0.50
2019-04-25T07:58:03.220Z,0.80
2019-04-25T08:00:56.169Z,0.50
2019-04-25T08:03:45.384Z,0.88
2019-04-25T08:06:45.608Z,0.70
2019-04-25T08:09:36.779Z,0.70
2019-04-25T08:12:28.357Z,0.78
2019-04-25T08:15:33.515Z,0.80
2019-04-25T08:18:25.425Z,0.72
2019-04-25T08:21:18.061Z,0.62
2019-04-25T08:24:07.249Z,0.70
2019-04-25T08:27:00.071Z,1.15
2019-04-25T08:29:54.239Z,0.95
2019-04-25T08:32:46.695Z,1.35
2019-04-25T08:35:36.551Z,1.00
2019-04-25T08:38:31.362Z,0.90
2019-04-25T08:41:23.885Z,0.93
2019-04-25T08:44:16.359Z,0.80
2019-04-25T08:47:09.420Z,0.93
2019-04-25T08:50:07.080Z,0.98
2019-04-25T08:53:03.950Z,0.80
2019-04-25T08:56:15.027Z,0.60
2019-04-25T08:59:32.177Z,0.90
2019-04-25T09:02:26.663Z,0.80
2019-04-25T09:05:40.369Z,0.90
2019-04-25T09:08:35.453Z,0.82
2019-04-25T09:11:25.543Z,1.00
2019-04-25T09:14:18.599Z,0.95
2019-04-25T09:17:11.404Z,0.90
2019-04-25T09:20:00.616Z,0.60
2019-04-25T09:22:49.678Z,1.00
2019-04-25T09:25:44.646Z,0.82
2019-04-25T09:28:38.053Z,0.93
2019-04-25T09:31:28.486Z,0.82
2019-04-25T09:34:21.287Z,1.92
2019-04-25T09:37:14.303Z,1.20
2019-04-25T09:40:24.311Z,1.00
2019-04-25T09:43:17.364Z,0.90
2019-04-25T09:46:21.415Z,0.88
2019-04-25T09:49:18.829Z,0.98
2019-04-25T09:52:29.039Z,0.80
2019-04-25T09:55:29.253Z,0.70
2019-04-25T10:01:33.872Z,0.90
2019-04-25T10:04:26.091Z,0.80
2019-04-25T10:07:18.886Z,0.65
2019-04-25T10:10:11.690Z,0.78
2019-04-25T10:13:06.484Z,0.72
2019-04-25T10:16:18.023Z,1.05
2019-04-25T10:19:10.826Z,0.70
2019-04-25T10:22:04.650Z,0.70
2019-04-25T10:25:00.669Z,0.70
2019-04-25T10:27:49.242Z,0.60
2019-04-25T10:30:43.012Z,0.60
2019-04-25T10:33:36.617Z,0.82
2019-04-25T10:36:30.190Z,0.70
2019-04-25T10:39:20.689Z,0.75
2019-04-25T10:42:14.764Z,0.90
2019-04-25T10:45:20.550Z,1.12
2019-04-25T10:48:01.640Z,0.80
2019-04-25T10:50:55.752Z,0.88
2019-04-25T10:53:45.730Z,1.02
2019-04-25T10:56:36.712Z,0.82
2019-04-25T10:59:29.769Z,0.62
2019-04-25T11:02:23.850Z,1.37
2019-04-25T11:05:21.512Z,0.68
2019-04-25T11:08:16.845Z,0.68
2019-04-25T11:11:07.634Z,1.00
2019-04-25T11:14:00.679Z,0.88
2019-04-25T11:16:55.057Z,0.98
2019-04-25T11:19:47.560Z,0.93
2019-04-25T11:22:41.877Z,0.78
2019-04-25T11:25:34.262Z,1.00
2019-04-25T11:28:27.763Z,0.70
2019-04-25T11:31:21.064Z,0.80
2019-04-25T11:34:14.858Z,0.82
2019-04-25T11:37:07.435Z,1.75
2019-04-25T11:40:11.757Z,1.17
2019-04-25T11:43:04.554Z,0.80
2019-04-25T11:45:58.122Z,0.95
2019-04-25T11:48:51.175Z,0.90
2019-04-25T11:51:45.054Z,0.60
2019-04-25T11:54:36.775Z,0.72
2019-04-25T11:57:30.090Z,1.05
2019-04-25T12:00:22.266Z,0.70
2019-04-25T12:03:11.852Z,0.95
2019-04-25T12:06:02.218Z,1.00
2019-04-25T12:08:55.500Z,0.80
2019-04-25T12:11:49.932Z,1.05
2019-04-25T12:14:44.184Z,0.80
2019-04-25T12:17:35.351Z,0.82
2019-04-25T12:20:27.883Z,0.70
2019-04-25T12:23:20.935Z,0.82
2019-04-25T12:26:14.343Z,0.65
2019-04-25T12:29:04.357Z,1.72
2019-04-25T12:31:54.607Z,1.10
2019-04-25T12:34:47.447Z,1.00
2019-04-25T12:37:39.559Z,1.02
2019-04-25T12:40:32.358Z,1.07
2019-04-25T12:43:25.159Z,1.20
2019-04-25T12:46:30.760Z,0.90
2019-04-25T12:49:24.163Z,0.90
2019-04-25T12:52:16.615Z,1.10
2019-04-25T12:55:10.442Z,1.02
2019-04-25T12:58:03.573Z,0.90
2019-04-25T13:00:59.708Z,0.80
2019-04-25T13:03:49.095Z,0.82
2019-04-25T13:06:43.333Z,0.70
2019-04-25T13:09:30.886Z,0.72
2019-04-25T13:12:20.038Z,1.00
2019-04-25T13:15:13.089Z,0.70
2019-04-25T13:18:03.547Z,1.12
2019-04-25T13:20:57.145Z,0.70
2019-04-25T13:23:47.942Z,0.72
2019-04-25T13:26:43.557Z,0.93
2019-04-25T13:29:47.623Z,0.70
2019-04-25T13:32:58.097Z,0.72
2019-04-25T13:35:56.211Z,1.12
2019-04-25T13:38:48.556Z,1.02
2019-04-25T13:41:43.056Z,0.80
2019-04-25T13:44:36.712Z,0.85
2019-04-25T13:47:30.647Z,0.72
2019-04-25T13:50:24.004Z,0.90
2019-04-25T13:53:15.880Z,1.30
2019-04-25T13:56:08.934Z,0.80
2019-04-25T13:59:01.994Z,0.90
2019-04-25T14:01:57.570Z,0.95
2019-04-25T14:04:47.847Z,0.90
2019-04-25T14:07:41.926Z,0.57
2019-04-25T14:10:31.147Z,0.70
2019-04-25T14:13:26.549Z,0.70
2019-04-25T14:16:35.688Z,0.82
2019-04-25T14:19:38.219Z,1.00
2019-04-25T14:22:31.014Z,0.55
2019-04-25T14:25:26.909Z,0.80
2019-04-25T14:28:17.128Z,0.90
2019-04-25T14:31:09.927Z,0.65
2019-04-25T14:34:05.086Z,0.95
2019-04-25T14:36:57.062Z,0.90
2019-04-25T14:39:50.120Z,1.25
2019-04-25T14:42:39.144Z,1.10
2019-04-25T14:45:40.330Z,1.50
2019-04-25T14:48:21.095Z,1.62
2019-04-25T14:51:13.896Z,1.55
2019-04-25T14:54:07.214Z,1.35
2019-04-25T14:57:09.756Z,1.05
2019-04-25T15:00:10.217Z,1.15
2019-04-25T15:06:11.687Z,1.30
2019-04-25T15:09:04.747Z,1.10
2019-04-25T15:11:57.556Z,1.07
2019-04-25T15:14:50.345Z,0.75
2019-04-25T15:17:46.366Z,1.32
2019-04-25T15:20:44.142Z,0.70
2019-04-25T15:23:37.193Z,1.40
2019-04-25T15:26:31.103Z,1.00
2019-04-25T15:29:23.046Z,1.00
2019-04-25T15:32:16.103Z,1.30
2019-04-25T15:35:10.952Z,0.80
2019-04-25T15:38:07.847Z,1.20
2019-04-25T15:41:06.279Z,0.60
2019-04-25T15:44:13.670Z,0.70
2019-04-25T15:50:12.075Z,0.42
2019-04-25T15:53:05.127Z,0.68
2019-04-25T15:55:57.930Z,0.55
2019-04-25T15:58:50.729Z,0.80
2019-04-25T16:01:44.556Z,0.70
2019-04-25T16:04:37.350Z,0.40
2019-04-25T16:07:31.073Z,0.80
2019-04-25T16:10:19.367Z,0.40
2019-04-25T16:13:12.424Z,0.90
2019-04-25T16:16:01.385Z,0.53
2019-04-25T16:18:54.189Z,0.60
2019-04-25T16:26:03.751Z,0.72
2019-04-25T16:28:58.088Z,0.80
2019-04-25T16:31:51.399Z,0.60
2019-04-25T16:34:44.206Z,1.20
2019-04-25T16:40:34.668Z,0.82
2019-04-25T16:43:30.535Z,1.10
2019-04-25T17:04:42.087Z,0.88
2019-04-25T17:11:39.369Z,0.80
2019-04-25T17:18:16.170Z,1.00
2019-04-25T17:21:11.730Z,0.80
2019-04-25T17:24:03.048Z,1.12
2019-04-25T17:26:56.106Z,1.47
2019-04-25T17:29:48.912Z,1.47
2019-04-25T17:33:01.931Z,1.90
2019-04-25T17:39:55.372Z,1.80
2019-04-25T17:42:48.180Z,1.30
2019-04-25T17:45:44.041Z,1.20
2019-04-25T17:52:56.943Z,1.00
2019-04-25T17:55:49.994Z,1.40
2019-04-25T17:58:43.304Z,1.45
2019-04-25T18:01:37.974Z,1.20
2019-04-25T18:04:30.440Z,1.10
2019-04-25T18:07:23.497Z,1.07
2019-04-25T18:10:16.556Z,1.35
2019-04-25T18:13:17.290Z,1.62
2019-04-25T18:16:48.492Z,1.45
2019-04-25T18:19:58.701Z,0.88
2019-04-25T18:23:20.940Z,1.12
2019-04-25T18:26:31.145Z,1.37
2019-04-25T18:29:26.505Z,1.37
2019-04-25T18:32:20.328Z,1.62
2019-04-25T18:35:20.040Z,1.15
2019-04-25T18:38:32.807Z,0.88
2019-04-25T18:41:43.935Z,1.42
2019-04-25T18:44:36.671Z,1.52
2019-04-25T18:47:29.640Z,1.77
2019-04-25T18:50:18.795Z,1.00
2019-04-25T18:53:28.121Z,1.75
2019-04-25T18:56:27.495Z,1.02
2019-04-25T18:59:40.264Z,1.80
2019-04-25T19:02:39.776Z,0.95
2019-04-25T19:05:43.787Z,1.72
2019-04-25T19:08:38.551Z,1.87
2019-04-25T19:11:30.664Z,0.90
2019-04-25T19:14:27.063Z,1.15
2019-04-25T19:17:18.058Z,1.65
2019-04-25T19:20:11.115Z,1.70
2019-04-25T19:23:03.920Z,1.35
2019-04-25T19:25:57.222Z,1.17
2019-04-25T19:28:50.280Z,1.45
2019-04-25T19:31:44.239Z,1.55
2019-04-25T19:34:32.970Z,1.20
2019-04-25T19:37:26.119Z,1.57
2019-04-25T19:40:30.391Z,1.20
2019-04-25T19:43:33.995Z,1.37
2019-04-25T19:46:27.306Z,1.57
2019-04-25T19:49:16.556Z,1.30
2019-04-25T19:52:09.319Z,1.70
2019-04-25T19:55:02.119Z,1.70
2019-04-25T19:57:52.596Z,1.30
2019-04-25T20:00:46.552Z,1.20
2019-04-25T20:03:53.554Z,1.60
2019-04-25T20:06:47.485Z,1.30
2019-04-25T20:09:55.559Z,1.60
2019-04-25T20:12:53.330Z,1.42
2019-04-25T20:15:45.533Z,2.35
2019-04-25T20:18:38.057Z,1.57
2019-04-25T20:21:31.624Z,2.40
2019-04-25T20:24:24.682Z,1.65
2019-04-25T20:27:17.740Z,1.87
2019-04-25T20:30:06.955Z,1.67
2019-04-25T20:33:00.011Z,1.70
2019-04-25T20:35:53.208Z,1.45
2019-04-25T20:38:47.144Z,1.40
2019-04-25T20:41:40.212Z,2.05
2019-04-25T20:44:33.518Z,1.52
2019-04-25T20:47:26.569Z,2.05
2019-04-25T20:50:19.367Z,1.25
2019-04-25T20:53:12.425Z,1.92
2019-04-25T20:56:05.479Z,2.20
2019-04-25T20:58:59.561Z,1.50
2019-04-25T21:01:53.520Z,1.50
2019-04-25T21:04:54.887Z,1.92
2019-04-25T21:07:47.686Z,1.70
2019-04-25T21:10:40.491Z,1.80
2019-04-25T21:13:35.536Z,2.00
2019-04-25T21:16:38.633Z,1.90
2019-04-25T21:19:34.521Z,2.17
2019-04-25T21:22:27.815Z,2.00
2019-04-25T21:25:21.128Z,1.72
2019-04-25T21:28:14.191Z,1.95
2019-04-25T21:31:07.503Z,1.35
2019-04-25T21:34:01.565Z,1.70
2019-04-25T21:36:54.383Z,2.05
2019-04-25T21:39:59.684Z,1.90
2019-04-25T21:43:03.019Z,1.92
2019-04-25T21:46:09.644Z,1.95
2019-04-25T21:49:03.127Z,1.75
2019-04-25T21:51:56.974Z,1.92
2019-04-25T21:54:49.063Z,1.40
2019-04-25T21:57:42.122Z,1.57
2019-04-25T22:00:47.470Z,1.90
2019-04-25T22:03:40.523Z,1.27
2019-04-25T22:06:33.574Z,1.77
2019-04-25T22:09:30.984Z,1.25
2019-04-25T22:12:24.045Z,1.90
2019-04-25T22:15:17.094Z,1.42
2019-04-25T22:18:10.151Z,1.70
2019-04-25T22:21:04.214Z,1.60
2019-04-25T22:24:05.952Z,1.90
2019-04-25T22:26:49.063Z,1.65
2019-04-25T22:29:42.122Z,1.40
2019-04-25T22:32:48.999Z,1.40
2019-04-25T22:35:55.626Z,1.50
2019-04-25T22:38:48.425Z,1.32
2019-04-25T22:41:41.225Z,1.65
2019-04-25T22:44:34.278Z,1.40
2019-04-25T22:47:28.361Z,1.50
2019-04-25T22:50:21.416Z,1.12
2019-04-25T22:53:21.828Z,1.30
2019-04-25T22:56:09.264Z,1.20
2019-04-25T22:59:02.888Z,1.30
2019-04-25T23:02:05.477Z,1.30
2019-04-25T23:05:13.858Z,1.10
2019-04-25T23:08:03.063Z,1.42
2019-04-25T23:10:55.079Z,1.40
2019-04-25T23:13:47.878Z,0.93
2019-04-25T23:16:40.941Z,1.32
2019-04-25T23:19:34.249Z,1.27
2019-04-25T23:22:27.560Z,1.17
2019-04-25T23:25:23.441Z,1.10
2019-04-25T23:28:25.706Z,1.22
2019-04-25T23:31:24.656Z,0.98
2019-04-25T23:34:17.710Z,1.25
2019-04-25T23:37:10.927Z,1.17
2019-04-25T23:40:03.562Z,1.00
2019-04-25T23:42:56.618Z,1.20
2019-04-25T23:45:50.438Z,1.10
2019-04-25T23:48:43.245Z,1.02
2019-04-25T23:51:36.296Z,1.20
2019-04-25T23:54:29.365Z,1.12
2019-04-25T23:57:22.150Z,1.00
